Terminal Aerodrome Forecast
Issued by NWS Cleveland, OH

Home | Current Version | Previous Version | Text Only | Print | Product List | Glossary On
Versions: 1 2 3 4 5 6 7 8 9 10 11 12 13 14 15 16 17 18 19 20 21 22 23 24 25 26 27
121
FTUS41 KCLE 010539
TAFCLE
TAF
KCLE 010539Z 0106/0212 20020G30KT P6SM OVC015 WS020/22050KT
     FM011000 20020G30KT 4SM -TSRA BR OVC015CB WS020/22050KT
      TEMPO 0110/0112 23025G40KT 1SM +TSRA BR OVC008CB
     FM011400 22015G25KT P6SM SCT015 BKN080
     FM011900 24020G35KT 3SM -SHRA OVC035
     FM012100 26020G35KT P6SM OVC025=

USA.gov is the U.S. government's official web portal to all federal, state and local government web resources and services.